sensor_id;sensor_type;location;lat;lon;timestamp;P1;durP1;ratioP1;P2;durP2;ratioP2
78209;SDS011;67485;48.816;9.930;2024-02-26T00:02:18;3.00;;;1.27;;
78209;SDS011;67485;48.816;9.930;2024-02-26T00:04:44;3.53;;;1.30;;
78209;SDS011;67485;48.816;9.930;2024-02-26T00:07:10;2.70;;;1.33;;
78209;SDS011;67485;48.816;9.930;2024-02-26T00:09:35;3.47;;;1.52;;
78209;SDS011;67485;48.816;9.930;2024-02-26T00:12:02;3.72;;;1.38;;
78209;SDS011;67485;48.816;9.930;2024-02-26T00:14:32;3.03;;;1.57;;
78209;SDS011;67485;48.816;9.930;2024-02-26T00:16:57;2.80;;;1.30;;
78209;SDS011;67485;48.816;9.930;2024-02-26T00:19:23;3.03;;;1.40;;
78209;SDS011;67485;48.816;9.930;2024-02-26T00:21:49;2.70;;;1.37;;
78209;SDS011;67485;48.816;9.930;2024-02-26T00:24:14;2.93;;;1.40;;
78209;SDS011;67485;48.816;9.930;2024-02-26T00:26:40;2.92;;;1.40;;
78209;SDS011;67485;48.816;9.930;2024-02-26T00:29:06;3.07;;;1.40;;
78209;SDS011;67485;48.816;9.930;2024-02-26T00:31:31;2.75;;;1.20;;
78209;SDS011;67485;48.816;9.930;2024-02-26T00:33:57;2.53;;;1.17;;
78209;SDS011;67485;48.816;9.930;2024-02-26T00:36:23;2.67;;;1.37;;
78209;SDS011;67485;48.816;9.930;2024-02-26T00:38:48;2.65;;;1.30;;
78209;SDS011;67485;48.816;9.930;2024-02-26T00:41:16;2.83;;;1.50;;
78209;SDS011;67485;48.816;9.930;2024-02-26T00:43:43;2.67;;;1.10;;
78209;SDS011;67485;48.816;9.930;2024-02-26T00:46:08;2.33;;;1.20;;
78209;SDS011;67485;48.816;9.930;2024-02-26T00:48:34;2.47;;;1.38;;
78209;SDS011;67485;48.816;9.930;2024-02-26T00:51:00;3.20;;;1.40;;
78209;SDS011;67485;48.816;9.930;2024-02-26T00:53:26;4.67;;;1.43;;
78209;SDS011;67485;48.816;9.930;2024-02-26T00:55:52;2.85;;;1.35;;
78209;SDS011;67485;48.816;9.930;2024-02-26T00:58:17;2.87;;;1.10;;
78209;SDS011;67485;48.816;9.930;2024-02-26T01:00:44;2.50;;;1.20;;
78209;SDS011;67485;48.816;9.930;2024-02-26T01:03:09;3.20;;;1.20;;
78209;SDS011;67485;48.816;9.930;2024-02-26T01:05:35;2.30;;;1.15;;
78209;SDS011;67485;48.816;9.930;2024-02-26T01:08:02;3.05;;;1.00;;
78209;SDS011;67485;48.816;9.930;2024-02-26T01:10:29;2.67;;;1.20;;
78209;SDS011;67485;48.816;9.930;2024-02-26T01:12:55;3.60;;;1.10;;
78209;SDS011;67485;48.816;9.930;2024-02-26T01:15:20;2.45;;;1.15;;
78209;SDS011;67485;48.816;9.930;2024-02-26T01:17:51;2.42;;;1.10;;
78209;SDS011;67485;48.816;9.930;2024-02-26T01:20:17;4.20;;;1.20;;
78209;SDS011;67485;48.816;9.930;2024-02-26T01:22:43;2.95;;;1.30;;
78209;SDS011;67485;48.816;9.930;2024-02-26T01:25:09;2.13;;;0.85;;
78209;SDS011;67485;48.816;9.930;2024-02-26T01:27:36;3.57;;;1.27;;
78209;SDS011;67485;48.816;9.930;2024-02-26T01:30:02;2.22;;;1.13;;
78209;SDS011;67485;48.816;9.930;2024-02-26T01:32:29;2.88;;;1.20;;
78209;SDS011;67485;48.816;9.930;2024-02-26T01:34:55;2.30;;;1.17;;
78209;SDS011;67485;48.816;9.930;2024-02-26T01:37:21;3.10;;;1.00;;
78209;SDS011;67485;48.816;9.930;2024-02-26T01:39:47;2.00;;;1.05;;
78209;SDS011;67485;48.816;9.930;2024-02-26T01:42:12;1.87;;;0.90;;
78209;SDS011;67485;48.816;9.930;2024-02-26T01:44:38;2.72;;;1.23;;
78209;SDS011;67485;48.816;9.930;2024-02-26T01:47:05;4.70;;;1.20;;
78209;SDS011;67485;48.816;9.930;2024-02-26T01:49:33;2.23;;;1.10;;
78209;SDS011;67485;48.816;9.930;2024-02-26T01:52:00;2.58;;;1.13;;
78209;SDS011;67485;48.816;9.930;2024-02-26T01:54:28;2.13;;;1.00;;
78209;SDS011;67485;48.816;9.930;2024-02-26T01:56:54;2.60;;;1.13;;
78209;SDS011;67485;48.816;9.930;2024-02-26T01:59:20;3.25;;;1.38;;
78209;SDS011;67485;48.816;9.930;2024-02-26T02:01:47;3.60;;;1.20;;
78209;SDS011;67485;48.816;9.930;2024-02-26T02:04:19;2.97;;;1.42;;
78209;SDS011;67485;48.816;9.930;2024-02-26T02:06:46;2.58;;;1.08;;
78209;SDS011;67485;48.816;9.930;2024-02-26T02:09:12;2.47;;;1.20;;
78209;SDS011;67485;48.816;9.930;2024-02-26T02:11:38;2.47;;;1.27;;
78209;SDS011;67485;48.816;9.930;2024-02-26T02:14:04;3.25;;;1.20;;
78209;SDS011;67485;48.816;9.930;2024-02-26T02:16:29;3.07;;;1.07;;
78209;SDS011;67485;48.816;9.930;2024-02-26T02:18:55;2.97;;;1.17;;
78209;SDS011;67485;48.816;9.930;2024-02-26T02:21:20;2.20;;;1.17;;
78209;SDS011;67485;48.816;9.930;2024-02-26T02:23:46;2.00;;;0.90;;
78209;SDS011;67485;48.816;9.930;2024-02-26T02:26:14;2.38;;;1.17;;
78209;SDS011;67485;48.816;9.930;2024-02-26T02:28:40;2.08;;;1.02;;
78209;SDS011;67485;48.816;9.930;2024-02-26T02:31:07;3.33;;;1.00;;
78209;SDS011;67485;48.816;9.930;2024-02-26T02:33:33;2.88;;;1.02;;
78209;SDS011;67485;48.816;9.930;2024-02-26T02:35:59;2.23;;;1.17;;
78209;SDS011;67485;48.816;9.930;2024-02-26T02:38:25;2.42;;;1.20;;
78209;SDS011;67485;48.816;9.930;2024-02-26T02:40:54;2.50;;;1.23;;
78209;SDS011;67485;48.816;9.930;2024-02-26T02:43:19;3.70;;;1.27;;
78209;SDS011;67485;48.816;9.930;2024-02-26T02:45:45;3.00;;;1.30;;
78209;SDS011;67485;48.816;9.930;2024-02-26T02:48:11;2.53;;;1.10;;
78209;SDS011;67485;48.816;9.930;2024-02-26T02:50:37;2.47;;;1.10;;
78209;SDS011;67485;48.816;9.930;2024-02-26T02:53:03;3.17;;;1.10;;
78209;SDS011;67485;48.816;9.930;2024-02-26T02:55:28;2.17;;;0.90;;
78209;SDS011;67485;48.816;9.930;2024-02-26T02:57:54;2.07;;;1.07;;
78209;SDS011;67485;48.816;9.930;2024-02-26T03:00:20;2.13;;;1.10;;
78209;SDS011;67485;48.816;9.930;2024-02-26T03:02:48;2.85;;;1.23;;
78209;SDS011;67485;48.816;9.930;2024-02-26T03:05:14;3.40;;;1.10;;
78209;SDS011;67485;48.816;9.930;2024-02-26T03:07:40;2.47;;;1.20;;
78209;SDS011;67485;48.816;9.930;2024-02-26T03:10:06;2.17;;;1.10;;
78209;SDS011;67485;48.816;9.930;2024-02-26T03:12:33;4.05;;;2.13;;
78209;SDS011;67485;48.816;9.930;2024-02-26T03:14:59;2.75;;;1.27;;
78209;SDS011;67485;48.816;9.930;2024-02-26T03:17:30;2.63;;;1.30;;
78209;SDS011;67485;48.816;9.930;2024-02-26T03:19:56;2.85;;;1.33;;
78209;SDS011;67485;48.816;9.930;2024-02-26T03:22:22;3.27;;;1.27;;
78209;SDS011;67485;48.816;9.930;2024-02-26T03:24:48;2.28;;;0.93;;
78209;SDS011;67485;48.816;9.930;2024-02-26T03:27:13;2.77;;;0.97;;
78209;SDS011;67485;48.816;9.930;2024-02-26T03:29:39;3.03;;;1.00;;
78209;SDS011;67485;48.816;9.930;2024-02-26T03:32:06;2.22;;;0.90;;
78209;SDS011;67485;48.816;9.930;2024-02-26T03:34:32;3.25;;;0.93;;
78209;SDS011;67485;48.816;9.930;2024-02-26T03:37:00;2.60;;;1.17;;
78209;SDS011;67485;48.816;9.930;2024-02-26T03:39:26;4.68;;;1.30;;
78209;SDS011;67485;48.816;9.930;2024-02-26T03:41:52;1.77;;;1.05;;
78209;SDS011;67485;48.816;9.930;2024-02-26T03:44:17;2.40;;;1.10;;
78209;SDS011;67485;48.816;9.930;2024-02-26T03:46:43;2.65;;;1.10;;
78209;SDS011;67485;48.816;9.930;2024-02-26T03:49:09;3.03;;;1.10;;
78209;SDS011;67485;48.816;9.930;2024-02-26T03:51:34;2.20;;;1.00;;
78209;SDS011;67485;48.816;9.930;2024-02-26T03:54:00;2.20;;;1.20;;
78209;SDS011;67485;48.816;9.930;2024-02-26T03:56:26;3.58;;;1.63;;
78209;SDS011;67485;48.816;9.930;2024-02-26T03:58:53;3.63;;;1.70;;
78209;SDS011;67485;48.816;9.930;2024-02-26T04:01:19;3.42;;;1.27;;
78209;SDS011;67485;48.816;9.930;2024-02-26T04:03:44;2.83;;;1.40;;
78209;SDS011;67485;48.816;9.930;2024-02-26T04:06:11;2.78;;;1.30;;
78209;SDS011;67485;48.816;9.930;2024-02-26T04:08:39;5.95;;;1.45;;
78209;SDS011;67485;48.816;9.930;2024-02-26T04:11:06;3.08;;;1.33;;
78209;SDS011;67485;48.816;9.930;2024-02-26T04:13:33;2.90;;;1.20;;
78209;SDS011;67485;48.816;9.930;2024-02-26T04:15:59;4.95;;;1.48;;
78209;SDS011;67485;48.816;9.930;2024-02-26T04:18:26;3.15;;;1.40;;
78209;SDS011;67485;48.816;9.930;2024-02-26T04:20:52;2.42;;;1.20;;
78209;SDS011;67485;48.816;9.930;2024-02-26T04:23:19;3.03;;;0.88;;
78209;SDS011;67485;48.816;9.930;2024-02-26T04:25:45;2.67;;;1.10;;
78209;SDS011;67485;48.816;9.930;2024-02-26T04:28:10;3.40;;;1.25;;
78209;SDS011;67485;48.816;9.930;2024-02-26T04:30:37;2.95;;;1.00;;
78209;SDS011;67485;48.816;9.930;2024-02-26T04:33:03;2.17;;;0.83;;
78209;SDS011;67485;48.816;9.930;2024-02-26T04:35:29;2.15;;;1.00;;
78209;SDS011;67485;48.816;9.930;2024-02-26T04:37:55;1.90;;;1.10;;
78209;SDS011;67485;48.816;9.930;2024-02-26T04:40:21;2.87;;;1.10;;
78209;SDS011;67485;48.816;9.930;2024-02-26T04:42:46;2.75;;;1.40;;
78209;SDS011;67485;48.816;9.930;2024-02-26T04:45:12;2.57;;;1.23;;
78209;SDS011;67485;48.816;9.930;2024-02-26T04:47:38;2.47;;;1.20;;
78209;SDS011;67485;48.816;9.930;2024-02-26T04:50:03;2.50;;;1.03;;
78209;SDS011;67485;48.816;9.930;2024-02-26T04:52:29;2.75;;;1.27;;
78209;SDS011;67485;48.816;9.930;2024-02-26T04:54:55;4.97;;;1.57;;
78209;SDS011;67485;48.816;9.930;2024-02-26T04:57:21;2.45;;;1.40;;
78209;SDS011;67485;48.816;9.930;2024-02-26T04:59:47;3.63;;;1.67;;
78209;SDS011;67485;48.816;9.930;2024-02-26T05:02:13;4.53;;;1.60;;
78209;SDS011;67485;48.816;9.930;2024-02-26T05:04:39;2.97;;;1.70;;
78209;SDS011;67485;48.816;9.930;2024-02-26T05:07:05;2.97;;;1.80;;
78209;SDS011;67485;48.816;9.930;2024-02-26T05:09:31;3.08;;;1.52;;
78209;SDS011;67485;48.816;9.930;2024-02-26T05:11:57;3.67;;;1.75;;
78209;SDS011;67485;48.816;9.930;2024-02-26T05:14:23;4.80;;;1.93;;
78209;SDS011;67485;48.816;9.930;2024-02-26T05:16:48;4.72;;;1.83;;
78209;SDS011;67485;48.816;9.930;2024-02-26T05:19:14;4.70;;;1.80;;
78209;SDS011;67485;48.816;9.930;2024-02-26T05:21:40;4.82;;;1.90;;
78209;SDS011;67485;48.816;9.930;2024-02-26T05:24:06;3.77;;;1.90;;
78209;SDS011;67485;48.816;9.930;2024-02-26T05:26:35;6.57;;;2.33;;
78209;SDS011;67485;48.816;9.930;2024-02-26T05:29:01;5.13;;;2.75;;
78209;SDS011;67485;48.816;9.930;2024-02-26T05:31:27;6.20;;;2.13;;
78209;SDS011;67485;48.816;9.930;2024-02-26T05:33:54;4.00;;;1.98;;
78209;SDS011;67485;48.816;9.930;2024-02-26T05:36:22;6.40;;;2.63;;
78209;SDS011;67485;48.816;9.930;2024-02-26T05:38:48;5.05;;;1.70;;
78209;SDS011;67485;48.816;9.930;2024-02-26T05:41:15;8.67;;;2.50;;
78209;SDS011;67485;48.816;9.930;2024-02-26T05:43:41;8.75;;;4.05;;
78209;SDS011;67485;48.816;9.930;2024-02-26T05:46:07;14.52;;;5.90;;
78209;SDS011;67485;48.816;9.930;2024-02-26T05:48:33;13.98;;;6.07;;
78209;SDS011;67485;48.816;9.930;2024-02-26T05:50:59;10.73;;;4.50;;
78209;SDS011;67485;48.816;9.930;2024-02-26T05:53:25;6.53;;;2.85;;
78209;SDS011;67485;48.816;9.930;2024-02-26T05:55:50;3.83;;;1.90;;
78209;SDS011;67485;48.816;9.930;2024-02-26T05:58:16;4.40;;;1.90;;
78209;SDS011;67485;48.816;9.930;2024-02-26T06:00:42;4.57;;;1.90;;
78209;SDS011;67485;48.816;9.930;2024-02-26T06:03:07;5.37;;;1.83;;
78209;SDS011;67485;48.816;9.930;2024-02-26T06:05:33;4.20;;;1.83;;
78209;SDS011;67485;48.816;9.930;2024-02-26T06:08:01;3.42;;;1.80;;
78209;SDS011;67485;48.816;9.930;2024-02-26T06:10:28;2.87;;;1.57;;
78209;SDS011;67485;48.816;9.930;2024-02-26T06:12:53;3.03;;;1.50;;
78209;SDS011;67485;48.816;9.930;2024-02-26T06:15:19;6.77;;;2.00;;
78209;SDS011;67485;48.816;9.930;2024-02-26T06:17:44;4.57;;;1.90;;
78209;SDS011;67485;48.816;9.930;2024-02-26T06:20:10;4.50;;;2.13;;
78209;SDS011;67485;48.816;9.930;2024-02-26T06:22:39;4.15;;;1.80;;
78209;SDS011;67485;48.816;9.930;2024-02-26T06:25:06;5.00;;;1.73;;
78209;SDS011;67485;48.816;9.930;2024-02-26T06:27:32;4.27;;;1.50;;
78209;SDS011;67485;48.816;9.930;2024-02-26T06:29:58;2.90;;;1.60;;
78209;SDS011;67485;48.816;9.930;2024-02-26T06:32:23;6.60;;;1.80;;
78209;SDS011;67485;48.816;9.930;2024-02-26T06:34:49;5.53;;;2.80;;
78209;SDS011;67485;48.816;9.930;2024-02-26T06:37:15;5.47;;;2.43;;
78209;SDS011;67485;48.816;9.930;2024-02-26T06:39:41;3.97;;;1.95;;
78209;SDS011;67485;48.816;9.930;2024-02-26T06:42:07;3.55;;;2.00;;
78209;SDS011;67485;48.816;9.930;2024-02-26T06:44:33;4.57;;;1.80;;
78209;SDS011;67485;48.816;9.930;2024-02-26T06:46:58;3.30;;;1.83;;
78209;SDS011;67485;48.816;9.930;2024-02-26T06:49:25;3.55;;;1.75;;
78209;SDS011;67485;48.816;9.930;2024-02-26T06:51:51;4.30;;;1.80;;
78209;SDS011;67485;48.816;9.930;2024-02-26T06:54:17;3.28;;;1.85;;
78209;SDS011;67485;48.816;9.930;2024-02-26T06:56:42;5.40;;;1.67;;
78209;SDS011;67485;48.816;9.930;2024-02-26T06:59:08;4.07;;;1.70;;
78209;SDS011;67485;48.816;9.930;2024-02-26T07:01:34;2.90;;;1.60;;
78209;SDS011;67485;48.816;9.930;2024-02-26T07:03:59;4.30;;;1.58;;
78209;SDS011;67485;48.816;9.930;2024-02-26T07:06:26;3.83;;;1.50;;
78209;SDS011;67485;48.816;9.930;2024-02-26T07:08:52;2.97;;;1.30;;
78209;SDS011;67485;48.816;9.930;2024-02-26T07:11:20;2.75;;;1.40;;
78209;SDS011;67485;48.816;9.930;2024-02-26T07:13:48;3.33;;;1.60;;
78209;SDS011;67485;48.816;9.930;2024-02-26T07:16:15;3.27;;;1.50;;
78209;SDS011;67485;48.816;9.930;2024-02-26T07:18:41;2.72;;;1.38;;
78209;SDS011;67485;48.816;9.930;2024-02-26T07:21:06;2.88;;;1.30;;
78209;SDS011;67485;48.816;9.930;2024-02-26T07:23:33;4.72;;;1.50;;
78209;SDS011;67485;48.816;9.930;2024-02-26T07:25:58;2.70;;;1.40;;
78209;SDS011;67485;48.816;9.930;2024-02-26T07:28:24;5.43;;;1.42;;
78209;SDS011;67485;48.816;9.930;2024-02-26T07:30:50;2.70;;;1.57;;
78209;SDS011;67485;48.816;9.930;2024-02-26T07:33:16;9.25;;;1.90;;
78209;SDS011;67485;48.816;9.930;2024-02-26T07:35:41;5.80;;;1.53;;
78209;SDS011;67485;48.816;9.930;2024-02-26T07:38:07;3.38;;;1.42;;
78209;SDS011;67485;48.816;9.930;2024-02-26T07:40:33;4.27;;;1.70;;
78209;SDS011;67485;48.816;9.930;2024-02-26T07:42:58;4.03;;;1.45;;
78209;SDS011;67485;48.816;9.930;2024-02-26T07:45:24;6.37;;;2.03;;
78209;SDS011;67485;48.816;9.930;2024-02-26T07:47:50;3.78;;;1.77;;
78209;SDS011;67485;48.816;9.930;2024-02-26T07:50:17;3.77;;;1.70;;
78209;SDS011;67485;48.816;9.930;2024-02-26T07:52:43;4.57;;;1.80;;
78209;SDS011;67485;48.816;9.930;2024-02-26T07:55:09;5.07;;;1.75;;
78209;SDS011;67485;48.816;9.930;2024-02-26T07:57:35;5.03;;;1.67;;
78209;SDS011;67485;48.816;9.930;2024-02-26T08:00:02;5.80;;;1.50;;
78209;SDS011;67485;48.816;9.930;2024-02-26T08:02:30;3.73;;;1.97;;
78209;SDS011;67485;48.816;9.930;2024-02-26T08:04:55;5.93;;;1.55;;
78209;SDS011;67485;48.816;9.930;2024-02-26T08:07:21;4.43;;;1.80;;
78209;SDS011;67485;48.816;9.930;2024-02-26T08:09:47;3.78;;;1.90;;
78209;SDS011;67485;48.816;9.930;2024-02-26T08:12:13;8.17;;;1.90;;
78209;SDS011;67485;48.816;9.930;2024-02-26T08:14:39;5.10;;;1.83;;
78209;SDS011;67485;48.816;9.930;2024-02-26T08:17:06;5.30;;;1.73;;
78209;SDS011;67485;48.816;9.930;2024-02-26T08:19:31;4.90;;;1.87;;
78209;SDS011;67485;48.816;9.930;2024-02-26T08:21:57;4.93;;;1.98;;
78209;SDS011;67485;48.816;9.930;2024-02-26T08:24:23;8.43;;;2.30;;
78209;SDS011;67485;48.816;9.930;2024-02-26T08:26:49;5.45;;;2.05;;
78209;SDS011;67485;48.816;9.930;2024-02-26T08:29:14;3.87;;;2.00;;
78209;SDS011;67485;48.816;9.930;2024-02-26T08:31:40;3.58;;;1.80;;
78209;SDS011;67485;48.816;9.930;2024-02-26T08:34:06;3.97;;;2.10;;
78209;SDS011;67485;48.816;9.930;2024-02-26T08:36:33;3.33;;;1.93;;
78209;SDS011;67485;48.816;9.930;2024-02-26T08:38:59;3.65;;;2.00;;
78209;SDS011;67485;48.816;9.930;2024-02-26T08:41:25;4.70;;;1.87;;
78209;SDS011;67485;48.816;9.930;2024-02-26T08:43:50;3.15;;;1.80;;
78209;SDS011;67485;48.816;9.930;2024-02-26T08:46:16;2.90;;;1.53;;
78209;SDS011;67485;48.816;9.930;2024-02-26T08:48:42;3.90;;;1.80;;
78209;SDS011;67485;48.816;9.930;2024-02-26T08:51:08;4.53;;;1.53;;
78209;SDS011;67485;48.816;9.930;2024-02-26T08:53:34;5.75;;;2.30;;
78209;SDS011;67485;48.816;9.930;2024-02-26T08:56:01;4.00;;;2.13;;
78209;SDS011;67485;48.816;9.930;2024-02-26T08:58:27;3.25;;;1.38;;
78209;SDS011;67485;48.816;9.930;2024-02-26T09:00:54;5.60;;;1.70;;
78209;SDS011;67485;48.816;9.930;2024-02-26T09:03:20;3.53;;;1.88;;
78209;SDS011;67485;48.816;9.930;2024-02-26T09:05:46;4.43;;;2.00;;
78209;SDS011;67485;48.816;9.930;2024-02-26T09:08:12;6.57;;;2.17;;
78209;SDS011;67485;48.816;9.930;2024-02-26T09:10:38;4.28;;;1.83;;
78209;SDS011;67485;48.816;9.930;2024-02-26T09:13:04;5.22;;;2.00;;
78209;SDS011;67485;48.816;9.930;2024-02-26T09:15:30;3.00;;;1.80;;
78209;SDS011;67485;48.816;9.930;2024-02-26T09:17:55;3.10;;;1.83;;
78209;SDS011;67485;48.816;9.930;2024-02-26T09:20:21;4.50;;;1.83;;
78209;SDS011;67485;48.816;9.930;2024-02-26T09:22:48;3.80;;;2.20;;
78209;SDS011;67485;48.816;9.930;2024-02-26T09:25:16;3.83;;;2.00;;
78209;SDS011;67485;48.816;9.930;2024-02-26T09:27:42;5.35;;;2.50;;
78209;SDS011;67485;48.816;9.930;2024-02-26T09:30:09;4.68;;;2.38;;
78209;SDS011;67485;48.816;9.930;2024-02-26T09:32:36;4.32;;;2.40;;
78209;SDS011;67485;48.816;9.930;2024-02-26T09:35:01;4.83;;;2.20;;
78209;SDS011;67485;48.816;9.930;2024-02-26T09:37:27;4.78;;;2.10;;
78209;SDS011;67485;48.816;9.930;2024-02-26T09:39:53;6.07;;;2.33;;
78209;SDS011;67485;48.816;9.930;2024-02-26T09:42:18;5.10;;;2.33;;
78209;SDS011;67485;48.816;9.930;2024-02-26T09:44:45;3.92;;;2.25;;
78209;SDS011;67485;48.816;9.930;2024-02-26T09:47:11;3.75;;;2.35;;
78209;SDS011;67485;48.816;9.930;2024-02-26T09:49:40;6.40;;;2.70;;
78209;SDS011;67485;48.816;9.930;2024-02-26T09:52:07;7.35;;;2.70;;
78209;SDS011;67485;48.816;9.930;2024-02-26T09:54:34;5.23;;;2.90;;
78209;SDS011;67485;48.816;9.930;2024-02-26T09:57:02;5.35;;;2.80;;
78209;SDS011;67485;48.816;9.930;2024-02-26T09:59:29;4.47;;;2.60;;
78209;SDS011;67485;48.816;9.930;2024-02-26T10:02:03;4.43;;;2.60;;
78209;SDS011;67485;48.816;9.930;2024-02-26T10:04:29;4.50;;;2.55;;
78209;SDS011;67485;48.816;9.930;2024-02-26T10:06:56;4.63;;;2.80;;
78209;SDS011;67485;48.816;9.930;2024-02-26T10:09:25;6.95;;;2.85;;
78209;SDS011;67485;48.816;9.930;2024-02-26T10:11:51;7.43;;;2.80;;
78209;SDS011;67485;48.816;9.930;2024-02-26T10:14:17;5.80;;;3.42;;
78209;SDS011;67485;48.816;9.930;2024-02-26T10:16:42;6.70;;;3.70;;
78209;SDS011;67485;48.816;9.930;2024-02-26T10:19:08;4.40;;;2.33;;
78209;SDS011;67485;48.816;9.930;2024-02-26T10:21:36;7.20;;;2.63;;
78209;SDS011;67485;48.816;9.930;2024-02-26T10:24:01;4.63;;;2.50;;
78209;SDS011;67485;48.816;9.930;2024-02-26T10:26:27;5.50;;;2.90;;
78209;SDS011;67485;48.816;9.930;2024-02-26T10:28:53;5.77;;;2.80;;
78209;SDS011;67485;48.816;9.930;2024-02-26T10:31:24;4.18;;;2.22;;
78209;SDS011;67485;48.816;9.930;2024-02-26T10:33:51;5.63;;;2.10;;
78209;SDS011;67485;48.816;9.930;2024-02-26T10:36:20;6.00;;;2.13;;
78209;SDS011;67485;48.816;9.930;2024-02-26T10:38:46;3.67;;;2.03;;
78209;SDS011;67485;48.816;9.930;2024-02-26T10:41:13;3.10;;;1.70;;
78209;SDS011;67485;48.816;9.930;2024-02-26T10:43:41;4.60;;;1.98;;
78209;SDS011;67485;48.816;9.930;2024-02-26T10:46:07;3.92;;;1.90;;
78209;SDS011;67485;48.816;9.930;2024-02-26T10:48:33;8.93;;;2.10;;
78209;SDS011;67485;48.816;9.930;2024-02-26T10:50:59;4.22;;;2.03;;
78209;SDS011;67485;48.816;9.930;2024-02-26T10:53:26;4.93;;;2.80;;
78209;SDS011;67485;48.816;9.930;2024-02-26T10:55:55;3.60;;;2.33;;
78209;SDS011;67485;48.816;9.930;2024-02-26T10:58:24;4.30;;;2.28;;
78209;SDS011;67485;48.816;9.930;2024-02-26T11:00:51;4.22;;;2.50;;
78209;SDS011;67485;48.816;9.930;2024-02-26T11:03:17;4.10;;;2.70;;
78209;SDS011;67485;48.816;9.930;2024-02-26T11:05:46;5.18;;;2.70;;
78209;SDS011;67485;48.816;9.930;2024-02-26T11:08:13;4.82;;;2.78;;
78209;SDS011;67485;48.816;9.930;2024-02-26T11:10:40;4.78;;;2.85;;
78209;SDS011;67485;48.816;9.930;2024-02-26T11:13:07;4.35;;;2.10;;
78209;SDS011;67485;48.816;9.930;2024-02-26T11:15:37;3.93;;;2.53;;
78209;SDS011;67485;48.816;9.930;2024-02-26T11:18:04;4.72;;;2.45;;
78209;SDS011;67485;48.816;9.930;2024-02-26T11:20:32;7.07;;;2.63;;
78209;SDS011;67485;48.816;9.930;2024-02-26T11:22:59;5.72;;;2.75;;
78209;SDS011;67485;48.816;9.930;2024-02-26T11:25:25;5.13;;;2.60;;
78209;SDS011;67485;48.816;9.930;2024-02-26T11:27:55;4.60;;;2.30;;
78209;SDS011;67485;48.816;9.930;2024-02-26T11:30:24;5.90;;;2.65;;
78209;SDS011;67485;48.816;9.930;2024-02-26T11:32:51;5.83;;;2.50;;
78209;SDS011;67485;48.816;9.930;2024-02-26T11:35:18;3.22;;;1.95;;
78209;SDS011;67485;48.816;9.930;2024-02-26T11:37:51;6.25;;;2.38;;
78209;SDS011;67485;48.816;9.930;2024-02-26T11:40:24;4.63;;;2.40;;
78209;SDS011;67485;48.816;9.930;2024-02-26T11:42:53;6.00;;;2.10;;
78209;SDS011;67485;48.816;9.930;2024-02-26T11:48:04;4.60;;;2.20;;
78209;SDS011;67485;48.816;9.930;2024-02-26T11:53:30;7.25;;;2.80;;
78209;SDS011;67485;48.816;9.930;2024-02-26T11:56:19;6.03;;;2.80;;
78209;SDS011;67485;48.816;9.930;2024-02-26T11:58:53;4.63;;;2.60;;
78209;SDS011;67485;48.816;9.930;2024-02-26T12:04:04;6.65;;;3.40;;
78209;SDS011;67485;48.816;9.930;2024-02-26T12:06:38;4.75;;;2.20;;
78209;SDS011;67485;48.816;9.930;2024-02-26T12:09:06;4.97;;;2.85;;
78209;SDS011;67485;48.816;9.930;2024-02-26T12:11:36;6.53;;;2.90;;
78209;SDS011;67485;48.816;9.930;2024-02-26T12:14:03;5.05;;;2.85;;
78209;SDS011;67485;48.816;9.930;2024-02-26T12:16:36;6.68;;;2.78;;
78209;SDS011;67485;48.816;9.930;2024-02-26T12:19:04;3.97;;;2.60;;
78209;SDS011;67485;48.816;9.930;2024-02-26T12:21:34;4.50;;;2.70;;
78209;SDS011;67485;48.816;9.930;2024-02-26T12:24:11;4.10;;;2.60;;
78209;SDS011;67485;48.816;9.930;2024-02-26T12:26:38;6.57;;;2.42;;
78209;SDS011;67485;48.816;9.930;2024-02-26T12:29:04;4.30;;;2.65;;
78209;SDS011;67485;48.816;9.930;2024-02-26T12:31:30;4.75;;;2.70;;
78209;SDS011;67485;48.816;9.930;2024-02-26T12:33:57;5.33;;;2.97;;
78209;SDS011;67485;48.816;9.930;2024-02-26T12:36:23;7.32;;;3.25;;
78209;SDS011;67485;48.816;9.930;2024-02-26T12:38:52;7.50;;;3.38;;
78209;SDS011;67485;48.816;9.930;2024-02-26T12:41:18;5.70;;;3.25;;
78209;SDS011;67485;48.816;9.930;2024-02-26T12:43:44;5.93;;;3.17;;
78209;SDS011;67485;48.816;9.930;2024-02-26T12:46:10;5.32;;;3.20;;
78209;SDS011;67485;48.816;9.930;2024-02-26T12:48:36;6.50;;;3.13;;
78209;SDS011;67485;48.816;9.930;2024-02-26T12:51:03;7.23;;;3.20;;
78209;SDS011;67485;48.816;9.930;2024-02-26T12:53:29;7.97;;;3.70;;
78209;SDS011;67485;48.816;9.930;2024-02-26T12:55:55;5.65;;;3.28;;
78209;SDS011;67485;48.816;9.930;2024-02-26T12:58:21;6.43;;;3.33;;
78209;SDS011;67485;48.816;9.930;2024-02-26T13:00:50;5.53;;;3.50;;
78209;SDS011;67485;48.816;9.930;2024-02-26T13:03:17;6.88;;;3.58;;
78209;SDS011;67485;48.816;9.930;2024-02-26T13:05:44;6.85;;;3.47;;
78209;SDS011;67485;48.816;9.930;2024-02-26T13:08:17;9.70;;;3.47;;
78209;SDS011;67485;48.816;9.930;2024-02-26T13:10:43;6.45;;;3.78;;
78209;SDS011;67485;48.816;9.930;2024-02-26T13:13:11;8.18;;;4.30;;
78209;SDS011;67485;48.816;9.930;2024-02-26T13:15:36;7.23;;;3.80;;
78209;SDS011;67485;48.816;9.930;2024-02-26T13:18:09;10.25;;;4.70;;
78209;SDS011;67485;48.816;9.930;2024-02-26T13:20:41;7.50;;;3.80;;
78209;SDS011;67485;48.816;9.930;2024-02-26T13:23:11;7.37;;;4.40;;
78209;SDS011;67485;48.816;9.930;2024-02-26T13:25:38;8.82;;;4.10;;
78209;SDS011;67485;48.816;9.930;2024-02-26T13:28:07;9.90;;;4.20;;
78209;SDS011;67485;48.816;9.930;2024-02-26T13:30:35;11.10;;;6.38;;
78209;SDS011;67485;48.816;9.930;2024-02-26T13:33:08;10.77;;;5.10;;
78209;SDS011;67485;48.816;9.930;2024-02-26T13:35:35;11.13;;;5.30;;
78209;SDS011;67485;48.816;9.930;2024-02-26T13:38:01;12.23;;;7.10;;
78209;SDS011;67485;48.816;9.930;2024-02-26T13:40:28;12.48;;;6.78;;
78209;SDS011;67485;48.816;9.930;2024-02-26T13:42:54;16.35;;;7.30;;
78209;SDS011;67485;48.816;9.930;2024-02-26T13:45:20;35.07;;;14.43;;
78209;SDS011;67485;48.816;9.930;2024-02-26T13:47:45;14.73;;;6.88;;
78209;SDS011;67485;48.816;9.930;2024-02-26T13:50:11;12.23;;;6.47;;
78209;SDS011;67485;48.816;9.930;2024-02-26T13:52:37;14.73;;;6.30;;
78209;SDS011;67485;48.816;9.930;2024-02-26T13:55:02;13.67;;;5.90;;
78209;SDS011;67485;48.816;9.930;2024-02-26T13:57:28;12.15;;;5.78;;
78209;SDS011;67485;48.816;9.930;2024-02-26T13:59:54;13.85;;;5.55;;
78209;SDS011;67485;48.816;9.930;2024-02-26T14:02:21;8.67;;;4.50;;
78209;SDS011;67485;48.816;9.930;2024-02-26T14:04:47;8.95;;;4.55;;
78209;SDS011;67485;48.816;9.930;2024-02-26T14:07:13;8.30;;;4.32;;
78209;SDS011;67485;48.816;9.930;2024-02-26T14:09:39;8.30;;;4.18;;
78209;SDS011;67485;48.816;9.930;2024-02-26T14:12:05;7.50;;;4.10;;
78209;SDS011;67485;48.816;9.930;2024-02-26T14:14:30;5.82;;;3.40;;
78209;SDS011;67485;48.816;9.930;2024-02-26T14:17:00;6.20;;;3.17;;
78209;SDS011;67485;48.816;9.930;2024-02-26T14:19:26;6.07;;;3.20;;
78209;SDS011;67485;48.816;9.930;2024-02-26T14:21:52;7.85;;;2.50;;
78209;SDS011;67485;48.816;9.930;2024-02-26T14:24:18;4.80;;;2.60;;
78209;SDS011;67485;48.816;9.930;2024-02-26T14:26:43;4.67;;;2.43;;
78209;SDS011;67485;48.816;9.930;2024-02-26T14:29:09;7.07;;;2.10;;
78209;SDS011;67485;48.816;9.930;2024-02-26T14:31:34;3.13;;;1.63;;
78209;SDS011;67485;48.816;9.930;2024-02-26T14:34:00;4.28;;;1.88;;
78209;SDS011;67485;48.816;9.930;2024-02-26T14:36:26;3.53;;;1.50;;
78209;SDS011;67485;48.816;9.930;2024-02-26T14:38:52;3.88;;;1.92;;
78209;SDS011;67485;48.816;9.930;2024-02-26T14:41:17;5.03;;;1.93;;
78209;SDS011;67485;48.816;9.930;2024-02-26T14:43:43;4.50;;;1.83;;
78209;SDS011;67485;48.816;9.930;2024-02-26T14:46:08;5.63;;;2.00;;
78209;SDS011;67485;48.816;9.930;2024-02-26T14:48:34;3.87;;;1.77;;
78209;SDS011;67485;48.816;9.930;2024-02-26T14:51:00;3.67;;;1.50;;
78209;SDS011;67485;48.816;9.930;2024-02-26T14:53:26;4.85;;;1.65;;